createdAt,value
2018-03-15T00:00:13.985Z,14.82
2018-03-15T00:01:16.456Z,27.23
2018-03-15T00:02:25.357Z,23.38
2018-03-15T00:03:34.565Z,15.68
2018-03-15T00:04:38.188Z,21.15
2018-03-15T00:05:40.661Z,15.15
2018-03-15T00:06:43.130Z,19.30
2018-03-15T00:07:45.585Z,22.50
2018-03-15T00:08:48.067Z,17.05
2018-03-15T00:09:51.329Z,21.15
2018-03-15T00:10:53.860Z,15.05
2018-03-15T00:11:56.381Z,20.45
2018-03-15T00:12:58.930Z,16.17
2018-03-15T00:14:01.407Z,14.57
2018-03-15T00:15:04.673Z,15.63
2018-03-15T00:16:07.940Z,16.95
2018-03-15T00:17:10.402Z,13.60
2018-03-15T00:18:13.650Z,12.93
2018-03-15T00:19:16.120Z,13.50
2018-03-15T00:20:18.624Z,12.45
2018-03-15T00:21:21.867Z,12.75
2018-03-15T00:22:25.120Z,17.80
2018-03-15T00:23:27.585Z,12.13
2018-03-15T00:24:31.778Z,14.10
2018-03-15T00:25:35.027Z,13.45
2018-03-15T00:26:37.623Z,13.13
2018-03-15T00:27:40.895Z,13.40
2018-03-15T00:28:44.122Z,12.85
2018-03-15T00:29:46.714Z,13.10
2018-03-15T00:30:49.843Z,12.95
2018-03-15T00:31:52.361Z,12.48
2018-03-15T00:32:54.909Z,13.00
2018-03-15T00:33:57.362Z,12.60
2018-03-15T00:34:59.932Z,13.70
2018-03-15T00:36:02.412Z,13.20
2018-03-15T00:37:04.908Z,12.77
2018-03-15T00:38:07.382Z,12.85
2018-03-15T00:39:10.898Z,12.85
2018-03-15T00:40:13.341Z,15.43
2018-03-15T00:41:15.832Z,13.95
2018-03-15T00:42:18.325Z,12.63
2018-03-15T00:43:20.808Z,13.10
2018-03-15T00:44:23.286Z,12.05
2018-03-15T00:45:25.744Z,14.10
2018-03-15T00:46:28.239Z,13.05
2018-03-15T00:47:30.736Z,13.65
2018-03-15T00:48:34.122Z,13.23
2018-03-15T00:49:36.648Z,12.95
2018-03-15T00:50:39.108Z,14.13
2018-03-15T00:51:41.656Z,13.90
2018-03-15T00:52:44.909Z,14.18
2018-03-15T00:53:47.420Z,12.57
2018-03-15T00:54:50.654Z,13.00
2018-03-15T00:55:53.131Z,13.20
2018-03-15T00:56:55.630Z,13.48
2018-03-15T00:57:58.916Z,12.55
2018-03-15T00:59:01.402Z,13.20
2018-03-15T01:00:03.923Z,13.05
2018-03-15T01:01:07.145Z,14.15
2018-03-15T01:02:10.357Z,13.88
2018-03-15T01:03:12.827Z,13.88
2018-03-15T01:04:16.054Z,12.88
2018-03-15T01:05:19.322Z,14.38
2018-03-15T01:06:21.811Z,13.80
2018-03-15T01:07:24.373Z,13.62
2018-03-15T01:08:27.473Z,14.57
2018-03-15T01:09:30.065Z,14.20
2018-03-15T01:10:32.560Z,14.10
2018-03-15T01:11:35.900Z,14.13
2018-03-15T01:12:39.125Z,14.35
2018-03-15T01:13:42.363Z,13.35
2018-03-15T01:14:44.934Z,14.38
2018-03-15T01:15:47.860Z,14.75
2018-03-15T01:16:50.350Z,14.07
2018-03-15T01:17:52.817Z,14.30
2018-03-15T01:18:55.281Z,14.82
2018-03-15T01:19:57.771Z,13.75
2018-03-15T01:21:00.275Z,13.60
2018-03-15T01:22:03.534Z,14.25
2018-03-15T01:23:06.025Z,14.43
2018-03-15T01:24:09.260Z,14.55
2018-03-15T01:25:11.757Z,13.20
2018-03-15T01:26:14.355Z,14.10
2018-03-15T01:27:16.833Z,14.90
2018-03-15T01:28:19.292Z,13.70
2018-03-15T01:29:21.765Z,14.45
2018-03-15T01:30:25.696Z,12.88
2018-03-15T01:31:28.704Z,14.00
2018-03-15T01:32:31.929Z,13.10
2018-03-15T01:33:35.167Z,14.20
2018-03-15T01:34:38.440Z,13.93
2018-03-15T01:35:40.915Z,14.30
2018-03-15T01:36:43.369Z,13.52
2018-03-15T01:37:46.597Z,14.55
2018-03-15T01:38:49.067Z,15.57
2018-03-15T01:39:51.561Z,15.32
2018-03-15T01:40:54.817Z,14.70
2018-03-15T01:41:57.342Z,14.63
2018-03-15T01:42:59.878Z,19.17
2018-03-15T01:44:02.364Z,17.95
2018-03-15T01:45:04.815Z,15.20
2018-03-15T01:46:07.302Z,14.43
2018-03-15T01:47:09.846Z,16.05
2018-03-15T01:48:12.303Z,17.02
2018-03-15T01:49:14.792Z,14.85
2018-03-15T01:50:17.267Z,15.00
2018-03-15T01:51:19.734Z,15.15
2018-03-15T01:52:22.201Z,14.52
2018-03-15T01:53:24.669Z,14.68
2018-03-15T01:54:27.259Z,13.55
2018-03-15T01:55:29.726Z,13.52
2018-03-15T01:56:32.193Z,18.95
2018-03-15T01:57:35.453Z,16.92
2018-03-15T01:58:38.671Z,16.30
2018-03-15T01:59:41.931Z,23.58
2018-03-15T02:00:44.410Z,17.15
2018-03-15T02:01:46.875Z,16.50
2018-03-15T02:02:49.368Z,25.48
2018-03-15T02:03:51.921Z,14.77
2018-03-15T02:04:55.205Z,15.15
2018-03-15T02:05:57.694Z,13.80
2018-03-15T02:07:00.173Z,14.30
2018-03-15T02:08:02.752Z,14.00
2018-03-15T02:09:05.219Z,14.55
2018-03-15T02:10:07.815Z,14.95
2018-03-15T02:11:10.272Z,15.73
2018-03-15T02:12:12.753Z,14.20
2018-03-15T02:13:15.217Z,14.25
2018-03-15T02:14:17.720Z,14.70
2018-03-15T02:15:20.243Z,14.30
2018-03-15T02:16:22.717Z,13.95
2018-03-15T02:17:25.180Z,14.80
2018-03-15T02:18:27.646Z,14.85
2018-03-15T02:19:30.124Z,14.68
2018-03-15T02:20:32.961Z,14.68
2018-03-15T02:21:35.464Z,14.27
2018-03-15T02:22:38.712Z,14.40
2018-03-15T02:23:41.967Z,14.87
2018-03-15T02:24:44.453Z,14.90
2018-03-15T02:25:47.684Z,14.77
2018-03-15T02:26:50.245Z,14.70
2018-03-15T02:27:53.493Z,14.75
2018-03-15T02:28:56.751Z,14.15
2018-03-15T02:29:59.216Z,15.10
2018-03-15T02:31:01.742Z,14.23
2018-03-15T02:32:04.190Z,15.30
2018-03-15T02:33:07.427Z,15.15
2018-03-15T02:34:09.994Z,14.93
2018-03-15T02:35:12.549Z,15.10
2018-03-15T02:36:14.957Z,15.15
2018-03-15T02:37:17.868Z,15.23
2018-03-15T02:38:20.373Z,15.45
2018-03-15T02:39:23.622Z,15.48
2018-03-15T02:40:26.895Z,15.60
2018-03-15T02:41:29.374Z,14.75
2018-03-15T02:42:31.951Z,15.25
2018-03-15T02:43:34.458Z,14.27
2018-03-15T02:44:36.937Z,15.00
2018-03-15T02:45:39.435Z,14.27
2018-03-15T02:46:41.906Z,15.77
2018-03-15T02:47:44.362Z,14.75
2018-03-15T02:48:46.843Z,16.12
2018-03-15T02:49:49.309Z,15.07
2018-03-15T02:50:51.799Z,15.30
2018-03-15T02:51:55.768Z,15.25
2018-03-15T02:52:58.248Z,14.87
2018-03-15T02:54:00.738Z,14.75
2018-03-15T02:55:03.326Z,14.57
2018-03-15T02:56:05.898Z,16.12
2018-03-15T02:57:09.253Z,16.85
2018-03-15T02:58:11.762Z,15.07
2018-03-15T02:59:14.994Z,14.15
2018-03-15T03:00:18.217Z,15.02
2018-03-15T03:01:22.943Z,14.65
2018-03-15T03:02:25.495Z,14.30
2018-03-15T03:03:27.960Z,15.88
2018-03-15T03:04:31.203Z,15.20
2018-03-15T03:05:34.446Z,14.55
2018-03-15T03:06:37.708Z,16.60
2018-03-15T03:07:40.204Z,16.48
2018-03-15T03:08:42.657Z,16.73
2018-03-15T03:09:45.139Z,15.70
2018-03-15T03:10:47.713Z,15.68
2018-03-15T03:11:50.192Z,15.70
2018-03-15T03:12:52.657Z,16.40
2018-03-15T03:13:55.310Z,16.10
2018-03-15T03:14:57.807Z,17.23
2018-03-15T03:16:00.296Z,16.50
2018-03-15T03:17:02.757Z,16.55
2018-03-15T03:18:05.217Z,16.08
2018-03-15T03:19:07.697Z,15.65
2018-03-15T03:20:10.924Z,15.27
2018-03-15T03:21:13.432Z,15.32
2018-03-15T03:22:15.997Z,15.55
2018-03-15T03:23:18.500Z,16.15
2018-03-15T03:24:20.981Z,15.68
2018-03-15T03:25:23.441Z,16.73
2018-03-15T03:26:25.896Z,16.15
2018-03-15T03:27:29.524Z,14.50
2018-03-15T03:28:32.803Z,15.52
2018-03-15T03:29:35.281Z,15.55
2018-03-15T03:30:37.769Z,15.25
2018-03-15T03:31:40.264Z,16.17
2018-03-15T03:32:42.804Z,15.50
2018-03-15T03:33:45.328Z,14.80
2018-03-15T03:34:47.809Z,15.95
2018-03-15T03:35:50.283Z,15.30
2018-03-15T03:36:52.793Z,15.50
2018-03-15T03:37:56.077Z,14.73
2018-03-15T03:38:58.547Z,15.43
2018-03-15T03:40:01.788Z,15.18
2018-03-15T03:41:05.034Z,14.35
2018-03-15T03:42:08.375Z,15.20
2018-03-15T03:43:11.601Z,15.05
2018-03-15T03:44:14.103Z,15.90
2018-03-15T03:45:16.582Z,16.05
2018-03-15T03:46:20.334Z,15.38
2018-03-15T03:47:22.772Z,14.10
2018-03-15T03:48:25.292Z,15.60
2018-03-15T03:49:28.528Z,14.10
2018-03-15T03:50:31.775Z,15.18
2018-03-15T03:51:34.997Z,15.27
2018-03-15T03:52:38.226Z,16.62
2018-03-15T03:53:40.788Z,14.50
2018-03-15T03:54:43.262Z,15.63
2018-03-15T03:55:45.740Z,15.15
2018-03-15T03:56:48.191Z,15.15
2018-03-15T03:57:50.681Z,15.00
2018-03-15T03:58:53.173Z,14.82
2018-03-15T03:59:55.657Z,15.73
2018-03-15T04:00:58.123Z,14.68
2018-03-15T04:02:00.685Z,14.77
2018-03-15T04:03:03.165Z,15.35
2018-03-15T04:04:05.683Z,16.20
2018-03-15T04:05:08.168Z,14.60
2018-03-15T04:06:10.662Z,15.82
2018-03-15T04:07:13.126Z,14.85
2018-03-15T04:08:15.592Z,15.20
2018-03-15T04:09:18.065Z,14.80
2018-03-15T04:10:21.315Z,14.82
2018-03-15T04:11:23.770Z,15.70
2018-03-15T04:12:26.234Z,16.52
2018-03-15T04:13:29.490Z,15.88
2018-03-15T04:14:32.741Z,15.50
2018-03-15T04:15:35.262Z,16.17
2018-03-15T04:16:37.743Z,15.27
2018-03-15T04:17:40.218Z,14.93
2018-03-15T04:18:42.683Z,15.95
2018-03-15T04:19:45.153Z,15.93
2018-03-15T04:20:48.929Z,16.52
2018-03-15T04:21:51.401Z,15.98
2018-03-15T04:22:53.898Z,16.20
2018-03-15T04:23:56.666Z,16.05
2018-03-15T04:24:59.132Z,16.35
2018-03-15T04:26:01.600Z,15.43
2018-03-15T04:27:04.183Z,17.75
2018-03-15T04:28:06.674Z,24.17
2018-03-15T04:29:09.938Z,22.15
2018-03-15T04:30:13.167Z,16.45
2018-03-15T04:31:16.421Z,16.42
2018-03-15T04:32:18.885Z,15.75
2018-03-15T04:33:21.363Z,18.35
2018-03-15T04:34:24.615Z,16.30
2018-03-15T04:35:27.078Z,16.75
2018-03-15T04:36:29.661Z,16.60
2018-03-15T04:37:32.892Z,15.57
2018-03-15T04:38:36.130Z,16.58
2018-03-15T04:39:39.376Z,17.12
2018-03-15T04:40:41.862Z,17.45
2018-03-15T04:41:44.367Z,17.67
2018-03-15T04:42:46.864Z,16.90
2018-03-15T04:43:50.797Z,17.00
2018-03-15T04:44:53.257Z,16.67
2018-03-15T04:45:55.842Z,16.15
2018-03-15T04:46:58.884Z,23.33
2018-03-15T04:48:02.127Z,17.45
2018-03-15T04:49:04.615Z,25.12
2018-03-15T04:50:07.117Z,17.33
2018-03-15T04:51:09.650Z,21.37
2018-03-15T04:52:12.128Z,16.62
2018-03-15T04:53:15.382Z,19.08
2018-03-15T04:54:18.638Z,23.25
2018-03-15T04:55:21.870Z,18.25
2018-03-15T04:56:25.109Z,24.70
2018-03-15T04:57:27.588Z,17.25
2018-03-15T04:58:30.136Z,19.15
2018-03-15T04:59:32.594Z,22.67
2018-03-15T05:00:35.828Z,39.53
2018-03-15T05:01:38.316Z,27.02
2018-03-15T05:02:40.806Z,24.02
2018-03-15T05:03:43.358Z,19.77
2018-03-15T05:04:45.823Z,21.17
2018-03-15T05:05:49.047Z,17.25
2018-03-15T05:06:51.513Z,18.70
2018-03-15T05:07:54.819Z,20.00
2018-03-15T05:08:57.286Z,17.80
2018-03-15T05:09:59.751Z,20.42
2018-03-15T05:11:02.232Z,20.77
2018-03-15T05:12:05.893Z,19.42
2018-03-15T05:13:08.395Z,22.02
2018-03-15T05:14:11.621Z,17.58
2018-03-15T05:15:14.089Z,17.95
2018-03-15T05:16:16.560Z,18.00
2018-03-15T05:17:19.859Z,19.90
2018-03-15T05:18:22.353Z,17.37
2018-03-15T05:19:25.580Z,19.08
2018-03-15T05:20:28.143Z,19.42
2018-03-15T05:21:31.516Z,17.50
2018-03-15T05:22:33.976Z,22.37
2018-03-15T05:23:36.467Z,21.08
2018-03-15T05:24:39.044Z,20.80
2018-03-15T05:25:42.266Z,19.77
2018-03-15T05:26:44.751Z,19.70
2018-03-15T05:27:47.212Z,18.60
2018-03-15T05:28:49.694Z,18.20
2018-03-15T05:29:52.211Z,19.10
2018-03-15T05:30:54.691Z,19.37
2018-03-15T05:31:57.167Z,19.35
2018-03-15T05:32:59.637Z,18.90
2018-03-15T05:34:02.130Z,17.90
2018-03-15T05:35:04.634Z,19.30
2018-03-15T05:36:07.125Z,17.10
2018-03-15T05:37:09.605Z,19.52
2018-03-15T05:38:12.849Z,19.30
2018-03-15T05:39:15.321Z,20.45
2018-03-15T05:40:17.821Z,17.70
2018-03-15T05:41:20.315Z,17.27
2018-03-15T05:42:22.796Z,19.05
2018-03-15T05:43:25.350Z,18.52
2018-03-15T05:44:27.841Z,19.83
2018-03-15T05:45:30.348Z,17.98
2018-03-15T05:46:33.439Z,16.25
2018-03-15T05:47:35.897Z,18.80
2018-03-15T05:48:38.404Z,20.10
2018-03-15T05:49:40.908Z,18.60
2018-03-15T05:50:43.391Z,17.55
2018-03-15T05:51:45.883Z,18.25
2018-03-15T05:52:48.366Z,18.77
2018-03-15T05:53:51.619Z,19.75
2018-03-15T05:54:54.885Z,18.20
2018-03-15T05:55:57.433Z,20.10
2018-03-15T05:57:00.742Z,18.73
2018-03-15T05:58:05.436Z,19.65
2018-03-15T05:59:07.924Z,19.02
2018-03-15T06:00:11.792Z,17.60
2018-03-15T06:01:15.177Z,20.25
2018-03-15T06:02:17.630Z,18.60
2018-03-15T06:03:20.739Z,19.05
2018-03-15T06:04:23.227Z,19.02
2018-03-15T06:05:26.490Z,20.05
2018-03-15T06:06:29.021Z,18.02
2018-03-15T06:07:33.294Z,18.30
2018-03-15T06:08:35.745Z,18.25
2018-03-15T06:09:38.209Z,17.77
2018-03-15T06:10:41.452Z,18.55
2018-03-15T06:11:44.720Z,18.62
2018-03-15T06:12:47.198Z,18.58
2018-03-15T06:13:49.759Z,18.67
2018-03-15T06:14:52.236Z,18.08
2018-03-15T06:15:54.707Z,18.65
2018-03-15T06:16:57.185Z,17.15
2018-03-15T06:18:00.416Z,18.65
2018-03-15T06:19:02.916Z,20.52
2018-03-15T06:20:05.373Z,18.87
2018-03-15T06:21:07.901Z,19.77
2018-03-15T06:22:10.506Z,19.33
2018-03-15T06:23:12.967Z,23.75
2018-03-15T06:24:15.431Z,26.90
2018-03-15T06:25:17.901Z,18.65
2018-03-15T06:26:20.411Z,20.92
2018-03-15T06:27:22.868Z,18.90
2018-03-15T06:28:25.332Z,19.70
2018-03-15T06:29:27.805Z,18.90
2018-03-15T06:30:30.280Z,20.42
2018-03-15T06:31:33.450Z,23.77
2018-03-15T06:32:36.265Z,24.08
2018-03-15T06:33:38.763Z,22.98
2018-03-15T06:34:42.007Z,23.58
2018-03-15T06:35:45.262Z,22.30
2018-03-15T06:36:47.734Z,25.10
2018-03-15T06:37:50.237Z,23.70
2018-03-15T06:38:52.707Z,23.30
2018-03-15T06:39:55.973Z,23.87
2018-03-15T06:40:58.499Z,21.15
2018-03-15T06:42:01.031Z,22.50
2018-03-15T06:43:03.583Z,24.15
2018-03-15T06:44:06.054Z,20.77
2018-03-15T06:45:09.317Z,22.30
2018-03-15T06:46:12.678Z,21.48
2018-03-15T06:47:15.890Z,22.20
2018-03-15T06:48:19.171Z,22.13
2018-03-15T06:49:21.637Z,22.17
2018-03-15T06:50:24.098Z,21.42
2018-03-15T06:51:26.585Z,20.45
2018-03-15T06:52:29.061Z,21.23
2018-03-15T06:53:31.548Z,22.42
2018-03-15T06:54:34.008Z,23.38
2018-03-15T06:55:37.085Z,20.42
2018-03-15T06:56:39.573Z,19.70
2018-03-15T06:57:42.021Z,20.90
2018-03-15T06:58:44.507Z,21.98
2018-03-15T06:59:47.799Z,21.75
2018-03-15T07:00:50.282Z,21.40
2018-03-15T07:01:52.794Z,20.52
2018-03-15T07:02:56.099Z,19.67
2018-03-15T07:03:58.565Z,21.58
2018-03-15T07:05:01.785Z,22.48
2018-03-15T07:06:04.275Z,20.85
2018-03-15T07:07:06.788Z,21.05
2018-03-15T07:08:09.344Z,20.52
2018-03-15T07:09:11.872Z,22.37
2018-03-15T07:10:14.410Z,21.65
2018-03-15T07:11:16.896Z,20.37
2018-03-15T07:12:19.466Z,20.15
2018-03-15T07:13:22.826Z,20.15
2018-03-15T07:14:26.087Z,20.77
2018-03-15T07:15:28.596Z,18.87
2018-03-15T07:16:31.863Z,18.95
2018-03-15T07:17:34.354Z,18.77
2018-03-15T07:18:37.793Z,20.17
2018-03-15T07:19:40.255Z,19.90
2018-03-15T07:20:42.766Z,20.10
2018-03-15T07:21:46.009Z,19.50
2018-03-15T07:22:49.266Z,19.37
2018-03-15T07:23:51.749Z,21.67
2018-03-15T07:24:54.238Z,18.75
2018-03-15T07:25:56.722Z,18.90
2018-03-15T07:26:59.941Z,19.50
2018-03-15T07:28:02.418Z,18.00
2018-03-15T07:29:04.909Z,19.35
2018-03-15T07:30:08.167Z,20.45
2018-03-15T07:31:11.410Z,21.00
2018-03-15T07:32:13.876Z,19.83
2018-03-15T07:33:16.344Z,19.62
2018-03-15T07:34:19.587Z,20.30
2018-03-15T07:35:22.830Z,20.12
2018-03-15T07:36:26.099Z,20.45
2018-03-15T07:37:28.590Z,19.62
2018-03-15T07:38:31.863Z,18.40
2018-03-15T07:39:34.342Z,20.08
2018-03-15T07:40:37.570Z,21.80
2018-03-15T07:41:40.062Z,19.65
2018-03-15T07:42:42.539Z,20.62
2018-03-15T07:43:45.005Z,22.67
2018-03-15T07:44:47.501Z,21.83
2018-03-15T07:45:50.853Z,27.10
2018-03-15T07:46:54.440Z,24.70
2018-03-15T07:47:57.289Z,27.48
2018-03-15T07:48:59.733Z,22.25
2018-03-15T07:50:02.213Z,25.58
2018-03-15T07:51:04.734Z,23.35
2018-03-15T07:52:07.202Z,20.67
2018-03-15T07:53:09.782Z,17.73
2018-03-15T07:54:12.252Z,18.80
2018-03-15T07:55:14.741Z,20.65
2018-03-15T07:56:17.231Z,21.62
2018-03-15T07:57:20.453Z,17.75
2018-03-15T07:58:22.930Z,19.62
2018-03-15T07:59:25.387Z,21.55
2018-03-15T08:00:27.863Z,22.95
2018-03-15T08:01:31.115Z,17.98
2018-03-15T08:02:33.604Z,19.35
2018-03-15T08:03:36.892Z,24.35
2018-03-15T08:04:39.625Z,20.02
2018-03-15T08:05:42.151Z,19.12
2018-03-15T08:06:44.677Z,19.23
2018-03-15T08:07:47.160Z,21.02
2018-03-15T08:08:49.639Z,19.02
2018-03-15T08:09:52.136Z,19.17
2018-03-15T08:10:54.662Z,19.35
2018-03-15T08:11:57.195Z,18.95
2018-03-15T08:12:59.681Z,27.92
2018-03-15T08:14:02.147Z,28.15
2018-03-15T08:15:04.617Z,18.90
2018-03-15T08:16:07.110Z,28.15
2018-03-15T08:17:10.007Z,24.63
2018-03-15T08:18:13.287Z,21.40
2018-03-15T08:19:15.753Z,18.30
2018-03-15T08:20:18.317Z,19.10
2018-03-15T08:21:20.791Z,17.83
2018-03-15T08:22:23.707Z,17.52
2018-03-15T08:23:26.220Z,18.70
2018-03-15T08:24:28.690Z,18.92
2018-03-15T08:25:31.156Z,26.52
2018-03-15T08:26:33.729Z,22.10
2018-03-15T08:27:36.212Z,27.48
2018-03-15T08:28:38.705Z,27.65
2018-03-15T08:29:41.245Z,22.00
2018-03-15T08:30:44.499Z,18.55
2018-03-15T08:31:47.027Z,21.08
2018-03-15T08:32:49.516Z,20.85
2018-03-15T08:33:52.076Z,19.98
2018-03-15T08:34:54.547Z,23.40
2018-03-15T08:35:56.996Z,20.70
2018-03-15T08:36:59.534Z,18.83
2018-03-15T08:38:02.807Z,18.80
2018-03-15T08:39:05.270Z,18.10
2018-03-15T08:40:07.721Z,20.08
2018-03-15T08:41:10.955Z,19.23
2018-03-15T08:42:13.436Z,18.65
2018-03-15T08:43:15.941Z,22.90
2018-03-15T08:44:19.297Z,21.42
2018-03-15T08:45:21.811Z,21.62
2018-03-15T08:46:24.293Z,21.37
2018-03-15T08:47:26.779Z,22.67
2018-03-15T08:48:29.298Z,20.05
2018-03-15T08:49:31.824Z,19.25
2018-03-15T08:50:34.273Z,19.02
2018-03-15T08:51:36.765Z,17.37
2018-03-15T08:52:39.261Z,18.75
2018-03-15T08:53:42.529Z,17.77
2018-03-15T08:54:45.814Z,17.87
2018-03-15T08:55:48.317Z,17.42
2018-03-15T08:56:50.881Z,17.90
2018-03-15T08:57:53.404Z,17.15
2018-03-15T08:58:55.882Z,17.70
2018-03-15T08:59:58.336Z,17.48
2018-03-15T09:01:00.828Z,18.40
2018-03-15T09:02:03.317Z,17.33
2018-03-15T09:03:06.594Z,17.55
2018-03-15T09:04:09.058Z,17.55
2018-03-15T09:05:11.512Z,17.92
2018-03-15T09:06:15.817Z,17.40
2018-03-15T09:07:18.301Z,18.02
2018-03-15T09:08:21.565Z,15.85
2018-03-15T09:09:24.087Z,17.02
2018-03-15T09:10:27.411Z,17.95
2018-03-15T09:11:29.922Z,17.30
2018-03-15T09:12:32.412Z,18.85
2018-03-15T09:13:34.973Z,17.75
2018-03-15T09:14:37.467Z,17.70
2018-03-15T09:15:39.944Z,17.62
2018-03-15T09:16:42.485Z,16.92
2018-03-15T09:17:45.734Z,17.37
2018-03-15T09:18:48.425Z,17.15
2018-03-15T09:19:50.934Z,16.30
2018-03-15T09:20:53.445Z,16.02
2018-03-15T09:21:55.950Z,16.85
2018-03-15T09:22:58.449Z,17.98
2018-03-15T09:24:01.736Z,16.10
2018-03-15T09:25:04.187Z,15.63
2018-03-15T09:26:06.659Z,15.05
2018-03-15T09:27:09.136Z,15.50
2018-03-15T09:28:11.622Z,16.00
2018-03-15T09:29:14.082Z,16.23
2018-03-15T09:30:16.657Z,16.70
2018-03-15T09:31:19.641Z,16.83
2018-03-15T09:32:22.129Z,15.93
2018-03-15T09:33:24.687Z,14.98
2018-03-15T09:34:27.223Z,16.30
2018-03-15T09:35:29.720Z,14.60
2018-03-15T09:36:32.228Z,15.73
2018-03-15T09:37:34.693Z,17.20
2018-03-15T09:38:37.676Z,16.27
2018-03-15T09:39:40.960Z,16.48
2018-03-15T09:40:43.432Z,15.93
2018-03-15T09:41:46.697Z,14.63
2018-03-15T09:42:49.477Z,16.45
2018-03-15T09:43:51.993Z,15.82
2018-03-15T09:44:54.467Z,16.12
2018-03-15T09:45:57.738Z,15.68
2018-03-15T09:47:00.227Z,15.23
2018-03-15T09:48:03.474Z,15.05
2018-03-15T09:49:06.712Z,14.63
2018-03-15T09:50:09.945Z,14.60
2018-03-15T09:51:12.483Z,15.10
2018-03-15T09:52:15.776Z,14.75
2018-03-15T09:53:18.266Z,14.80
2018-03-15T09:54:20.729Z,15.07
2018-03-15T09:55:25.292Z,14.52
2018-03-15T09:56:27.884Z,15.43
2018-03-15T09:57:30.341Z,14.70
2018-03-15T09:58:32.863Z,14.70
2018-03-15T09:59:35.401Z,14.60
2018-03-15T10:00:37.884Z,15.15
2018-03-15T10:01:41.209Z,13.75
2018-03-15T10:02:44.488Z,13.80
2018-03-15T10:03:46.965Z,15.75
2018-03-15T10:04:49.547Z,16.62
2018-03-15T10:05:52.087Z,16.00
2018-03-15T10:06:55.270Z,15.07
2018-03-15T10:07:58.560Z,14.55
2018-03-15T10:09:01.807Z,14.75
2018-03-15T10:10:04.309Z,15.60
2018-03-15T10:11:06.799Z,14.87
2018-03-15T10:12:09.299Z,15.65
2018-03-15T10:13:11.769Z,14.65
2018-03-15T10:14:14.985Z,15.20
2018-03-15T10:15:17.573Z,14.35
2018-03-15T10:16:20.097Z,13.88
2018-03-15T10:17:22.596Z,14.87
2018-03-15T10:18:25.865Z,14.35
2018-03-15T10:19:29.227Z,14.27
2018-03-15T10:20:31.719Z,14.87
2018-03-15T10:21:34.213Z,15.13
2018-03-15T10:22:36.700Z,22.75
2018-03-15T10:23:39.193Z,42.13
2018-03-15T10:24:41.657Z,15.23
2018-03-15T10:25:44.155Z,20.88
2018-03-15T10:26:46.642Z,33.05
2018-03-15T10:27:49.106Z,19.10
2018-03-15T10:28:51.567Z,21.48
2018-03-15T10:29:54.373Z,21.65
2018-03-15T10:30:56.820Z,18.83
2018-03-15T10:31:59.321Z,38.22
2018-03-15T10:33:07.414Z,17.80
2018-03-15T10:34:09.908Z,19.90
2018-03-15T10:35:18.092Z,15.38
2018-03-15T10:36:20.619Z,13.23
2018-03-15T10:37:23.108Z,14.85
2018-03-15T10:38:25.615Z,14.70
2018-03-15T10:39:28.142Z,15.55
2018-03-15T10:40:30.850Z,15.25
2018-03-15T10:41:34.127Z,14.73
2018-03-15T10:42:36.595Z,16.77
2018-03-15T10:43:39.077Z,16.08
2018-03-15T10:44:41.649Z,15.07
2018-03-15T10:45:44.215Z,14.80
2018-03-15T10:46:46.705Z,14.90
2018-03-15T10:47:49.883Z,15.60
2018-03-15T10:48:52.370Z,15.35
2018-03-15T10:49:54.849Z,15.80
2018-03-15T10:50:57.350Z,15.82
2018-03-15T10:51:59.928Z,16.23
2018-03-15T10:53:02.389Z,15.50
2018-03-15T10:54:05.623Z,15.70
2018-03-15T10:55:08.906Z,16.60
2018-03-15T10:56:11.405Z,16.05
2018-03-15T10:57:13.997Z,15.05
2018-03-15T10:58:16.504Z,15.90
2018-03-15T10:59:18.987Z,15.02
2018-03-15T11:00:21.473Z,14.00
2018-03-15T11:01:23.976Z,15.20
2018-03-15T11:02:32.187Z,15.13
2018-03-15T11:03:41.130Z,16.00
2018-03-15T11:04:49.174Z,16.10
2018-03-15T11:05:57.941Z,15.43
2018-03-15T11:07:00.421Z,15.38
2018-03-15T11:08:08.533Z,15.68
2018-03-15T11:10:52.258Z,15.88
2018-03-15T11:11:54.714Z,16.87
2018-03-15T11:12:57.971Z,15.70
2018-03-15T11:14:00.489Z,15.77
2018-03-15T11:15:02.984Z,16.37
2018-03-15T11:16:05.576Z,15.15
2018-03-15T11:17:08.081Z,14.63
2018-03-15T11:18:10.583Z,15.18
2018-03-15T11:19:13.027Z,15.10
2018-03-15T11:20:15.512Z,14.80
2018-03-15T11:21:17.987Z,15.00
2018-03-15T11:22:20.509Z,15.27
2018-03-15T11:23:23.001Z,15.50
2018-03-15T11:24:25.581Z,15.23
2018-03-15T11:25:28.702Z,15.40
2018-03-15T11:26:31.173Z,16.30
2018-03-15T11:27:34.468Z,15.15
2018-03-15T11:28:36.955Z,15.80
2018-03-15T11:29:40.212Z,15.57
2018-03-15T11:30:43.482Z,15.60
2018-03-15T11:31:45.966Z,16.17
2018-03-15T11:32:48.447Z,16.33
2018-03-15T11:33:50.930Z,15.65
2018-03-15T11:34:53.414Z,15.85
2018-03-15T11:35:55.896Z,14.75
2018-03-15T11:36:58.372Z,14.93
2018-03-15T11:38:00.857Z,15.45
2018-03-15T11:39:03.336Z,12.85
2018-03-15T11:40:05.903Z,14.77
2018-03-15T11:41:08.451Z,14.40
2018-03-15T11:42:10.903Z,14.05
2018-03-15T11:43:13.361Z,14.50
2018-03-15T11:44:16.591Z,15.32
2018-03-15T11:45:19.842Z,14.60
2018-03-15T11:46:23.193Z,14.73
2018-03-15T11:47:26.435Z,13.50
2018-03-15T11:48:28.989Z,13.60
2018-03-15T11:49:31.451Z,13.30
2018-03-15T11:50:33.925Z,14.07
2018-03-15T11:51:36.485Z,13.45
2018-03-15T11:52:38.962Z,12.57
2018-03-15T11:53:41.503Z,14.23
2018-03-15T11:54:43.999Z,14.50
2018-03-15T11:55:47.229Z,13.70
2018-03-15T11:56:49.794Z,13.62
2018-03-15T11:57:52.262Z,13.80
2018-03-15T11:58:54.746Z,15.50
2018-03-15T11:59:57.274Z,14.32
2018-03-15T12:01:00.473Z,14.43
2018-03-15T12:02:03.011Z,14.35
2018-03-15T12:03:06.264Z,15.40
2018-03-15T12:04:09.527Z,14.30
2018-03-15T12:05:12.012Z,14.57
2018-03-15T12:06:15.337Z,13.73
2018-03-15T12:07:17.810Z,13.50
2018-03-15T12:08:20.304Z,13.62
2018-03-15T12:09:22.781Z,13.55
2018-03-15T12:10:25.281Z,13.30
2018-03-15T12:11:27.787Z,13.62
2018-03-15T12:12:31.018Z,14.15
2018-03-15T12:13:33.498Z,14.20
2018-03-15T12:14:35.994Z,13.05
2018-03-15T12:15:39.260Z,13.35
2018-03-15T12:16:41.770Z,14.90
2018-03-15T12:17:45.014Z,13.48
2018-03-15T12:18:48.303Z,12.90
2018-03-15T12:19:50.750Z,12.82
2018-03-15T12:20:53.319Z,13.43
2018-03-15T12:21:56.090Z,12.85
2018-03-15T12:22:58.585Z,14.25
2018-03-15T12:24:01.064Z,12.73
2018-03-15T12:25:03.567Z,12.85
2018-03-15T12:26:06.044Z,13.05
2018-03-15T12:27:08.575Z,13.62
2018-03-15T12:28:11.148Z,13.27
2018-03-15T12:29:13.600Z,13.57
2018-03-15T12:30:16.863Z,12.73
2018-03-15T12:31:19.363Z,13.45
2018-03-15T12:32:21.816Z,12.88
2018-03-15T12:33:24.905Z,13.65
2018-03-15T12:34:27.368Z,12.45
2018-03-15T12:35:30.619Z,12.70
2018-03-15T12:36:33.098Z,12.93
2018-03-15T12:37:35.577Z,13.05
2018-03-15T12:38:38.049Z,12.10
2018-03-15T12:39:40.525Z,11.73
2018-03-15T12:40:42.995Z,12.40
2018-03-15T12:41:45.501Z,11.12
2018-03-15T12:42:47.997Z,12.10
2018-03-15T12:43:50.472Z,12.23
2018-03-15T12:44:52.958Z,11.23
2018-03-15T12:45:55.488Z,12.65
2018-03-15T12:46:57.986Z,12.50
2018-03-15T12:48:01.252Z,12.48
2018-03-15T12:49:03.710Z,12.52
2018-03-15T12:50:06.181Z,12.00
2018-03-15T12:51:08.658Z,12.82
2018-03-15T12:52:11.156Z,13.35
2018-03-15T12:53:13.644Z,13.23
2018-03-15T12:54:16.879Z,12.50
2018-03-15T12:55:20.116Z,12.75
2018-03-15T12:56:22.672Z,11.40
2018-03-15T12:57:25.244Z,12.60
2018-03-15T12:58:27.674Z,11.82
2018-03-15T12:59:30.172Z,12.63
2018-03-15T13:00:32.716Z,12.98
2018-03-15T13:01:35.197Z,12.30
2018-03-15T13:02:37.660Z,11.43
2018-03-15T13:03:40.611Z,12.70
2018-03-15T13:04:43.975Z,12.15
2018-03-15T13:05:46.544Z,11.80
2018-03-15T13:06:49.105Z,11.70
2018-03-15T13:07:51.770Z,12.43
2018-03-15T13:08:54.287Z,13.62
2018-03-15T13:09:56.794Z,12.25
2018-03-15T13:10:59.264Z,13.48
2018-03-15T13:12:02.189Z,12.52
2018-03-15T13:13:04.683Z,12.45
2018-03-15T13:14:07.346Z,12.15
2018-03-15T13:15:10.586Z,11.63
2018-03-15T13:16:13.830Z,12.13
2018-03-15T13:17:17.056Z,12.98
2018-03-15T13:18:20.313Z,12.80
2018-03-15T13:19:23.529Z,12.37
2018-03-15T13:20:25.995Z,13.13
2018-03-15T13:21:28.471Z,12.95
2018-03-15T13:22:32.064Z,12.10
2018-03-15T13:23:34.562Z,12.15
2018-03-15T13:24:37.028Z,12.30
2018-03-15T13:25:39.511Z,11.88
2018-03-15T13:26:43.485Z,13.00
2018-03-15T13:27:46.708Z,11.05
2018-03-15T13:28:50.761Z,12.40
2018-03-15T13:29:53.325Z,11.18